Humidity-temperature Sensor

Selected Measurement Type: Air Temperature

 
Air Temperature [°C]     6 entries per hour
Showing data from 3/27/2015 (00:00:00 Z) to 3/24/2015 (00:01:00 Z)
Previous Next [ Day | 3-Days | 7-Days ]
First Last
Prev [ Day | 3-Days | 7-Days ] Next
First Last

Start Time:     :
End Time:     :     
Time (in GMT) :00 :50 :40 :30 :20 :10
Previous Next [ Day | 3-Days | 7-Days ]
First Last
Prev [ Day | 3-Days | 7-Days ] Next
First Last


123 => good data
MM => data is determined as missing
-- => data not received/configured
Back to Top Back to Top
3/27/2015 00:00 to 23:10 26.93 26.90 26.95 27.02 26.82 26.98
3/26/2015 23:00 to 22:10 26.79 26.89 26.78 26.78 26.86 26.80
3/26/2015 22:00 to 21:10 26.79 26.83 26.78 26.80 26.85 26.76
3/26/2015 21:00 to 20:10 26.80 26.73 26.81 26.86 26.77 26.79
3/26/2015 20:00 to 19:10 26.77 26.82 26.84 26.83 26.82 26.83
3/26/2015 19:00 to 18:10 26.80 26.75 26.74 26.84 26.72 26.76
3/26/2015 18:00 to 17:10 26.73 26.76 26.84 26.87 26.91 26.84
3/26/2015 17:00 to 16:10 26.95 26.89 26.87 26.97 26.97 26.87
3/26/2015 16:00 to 15:10 26.71 26.85 26.67 26.69 26.68 26.66
3/26/2015 15:00 to 14:10 26.58 26.69 26.60 26.56 26.67 26.58
3/26/2015 14:00 to 13:10 26.55 26.53 26.52 26.48 26.52 26.53
3/26/2015 13:00 to 12:10 26.56 26.53 26.56 26.54 26.52 26.55
3/26/2015 12:00 to 11:10 26.54 26.66 26.69 26.63 26.71 26.59
3/26/2015 11:00 to 10:10 26.61 26.74 26.66 26.68 26.68 26.66
3/26/2015 10:00 to 9:10 26.75 26.63 26.71 26.65 26.79 26.76
3/26/2015 09:00 to 8:10 26.80 26.82 26.82 26.74 26.72 26.85
3/26/2015 08:00 to 7:10 26.81 26.78 26.84 26.85 26.87 26.85
3/26/2015 07:00 to 6:10 26.82 26.77 26.78 26.92 26.87 26.86
3/26/2015 06:00 to 5:10 26.94 26.84 26.90 26.93 26.94 26.94
3/26/2015 05:00 to 4:10 26.94 26.95 26.99 27.02 26.98 27.05
3/26/2015 04:00 to 3:10 26.97 26.89 27.11 27.00 27.08 27.05
3/26/2015 03:00 to 2:10 27.16 27.05 27.31 27.24 27.11 27.09
3/26/2015 02:00 to 1:10 27.19 27.03 27.05 27.10 27.17 27.02
3/26/2015 01:00 to 0:10 27.18 27.20 27.12 27.12 27.15 27.15
3/26/2015 00:00 to 23:10 27.14 27.08 27.03 27.08 26.99 27.15
3/25/2015 23:00 to 22:10 26.99 27.05 27.09 27.03 27.00 27.01
3/25/2015 22:00 to 21:10 27.00 27.03 27.03 26.96 27.01 26.90
3/25/2015 21:00 to 20:10 26.85 26.92 26.88 26.86 26.90 26.83
3/25/2015 20:00 to 19:10 26.80 26.89 26.86 26.77 26.79 26.79
3/25/2015 19:00 to 18:10 26.79 26.77 26.84 26.88 26.82 26.87
3/25/2015 18:00 to 17:10 26.82 26.86 26.98 26.91 26.97 26.94
3/25/2015 17:00 to 16:10 26.92 26.82 26.89 26.85 26.84 26.78
3/25/2015 16:00 to 15:10 26.57 26.73 26.55 26.41 26.51 26.46
3/25/2015 15:00 to 14:10 26.29 26.48 26.49 26.38 26.52 26.39
3/25/2015 14:00 to 13:10 26.55 26.49 26.46 26.42 26.50 26.43
3/25/2015 13:00 to 12:10 26.46 26.50 26.46 26.52 26.53 26.50
3/25/2015 12:00 to 11:10 26.51 26.48 26.51 26.55 26.48 26.50
3/25/2015 11:00 to 10:10 26.43 26.48 26.48 26.54 26.53 26.51
3/25/2015 10:00 to 9:10 26.60 26.54 26.52 26.52 26.58 26.59
3/25/2015 09:00 to 8:10 26.60 26.64 26.61 26.60 26.69 26.70
3/25/2015 08:00 to 7:10 26.77 26.79 26.72 26.74 26.77 26.77
3/25/2015 07:00 to 6:10 26.80 26.84 26.86 26.83 26.86 26.83
3/25/2015 06:00 to 5:10 26.78 26.86 26.81 26.77 26.85 26.81
3/25/2015 05:00 to 4:10 26.97 26.86 26.86 26.85 26.77 26.82
3/25/2015 04:00 to 3:10 26.84 26.76 26.79 26.84 26.92 27.04
3/25/2015 03:00 to 2:10 27.20 27.33 27.24 27.29 27.46 27.34
3/25/2015 02:00 to 1:10 27.46 27.35 27.38 27.37 27.29 27.31
3/25/2015 01:00 to 0:10 27.15 27.24 27.22 27.06 27.06 27.09
3/25/2015 00:00 to 23:10 26.98 26.99 27.01 27.02 27.05 26.97
3/24/2015 23:00 to 22:10 26.92 26.91 26.79 26.93 26.88 26.86
3/24/2015 22:00 to 21:10 26.80 26.86 26.75 26.93 26.80 26.80
3/24/2015 21:00 to 20:10 26.76 26.76 26.93 26.74 26.77 26.75
3/24/2015 20:00 to 19:10 26.71 26.66 26.74 26.68 26.68 26.58
3/24/2015 19:00 to 18:10 26.60 26.55 26.55 26.60 26.53 26.58
3/24/2015 18:00 to 17:10 26.64 26.61 26.54 26.53 26.57 26.54
3/24/2015 17:00 to 16:10 26.42 26.51 26.50 26.47 26.37 26.40
3/24/2015 16:00 to 15:10 26.33 26.34 26.27 26.23 26.19 26.25
3/24/2015 15:00 to 14:10 26.18 26.36 26.24 26.29 26.23 26.35
3/24/2015 14:00 to 13:10 26.14 26.22 26.17 26.19 26.11 26.10
3/24/2015 13:00 to 12:10 26.15 26.15 26.26 26.17 26.26 26.23
3/24/2015 12:00 to 11:10 26.20 26.24 26.36 26.19 26.25 26.34
3/24/2015 11:00 to 10:10 26.18 26.22 26.22 26.30 26.29 26.33
3/24/2015 10:00 to 9:10 26.37 26.30 26.30 26.52 26.35 26.44
3/24/2015 09:00 to 8:10 26.42 26.45 26.43 26.51 26.48 26.54
3/24/2015 08:00 to 7:10 26.57 26.53 26.49 26.62 26.54 26.65
3/24/2015 07:00 to 6:10 26.65 26.70 26.61 26.58 26.67 26.67
3/24/2015 06:00 to 5:10 26.70 26.73 26.67 26.70 26.70 26.89
3/24/2015 05:00 to 4:10 26.76 26.71 26.69 26.79 26.79 26.85
3/24/2015 04:00 to 3:10 26.91 26.81 26.77 26.84 26.84 26.86
3/24/2015 03:00 to 2:10 27.10 27.15 27.12 27.13 27.29 27.25
3/24/2015 02:00 to 1:10 27.17 27.24 27.21 27.07 27.07 27.08
3/24/2015 01:00 to 0:10 26.99 27.01 26.87 26.93 26.99 26.89